• vieta
  • image
  • image
  • image
mod_vvisit_countermod_vvisit_countermod_vvisit_countermod_vvisit_countermod_vvisit_countermod_vvisit_counter
mod_vvisit_counterŠiandien214
mod_vvisit_counterVakar463
mod_vvisit_counterŠią savaitę214
mod_vvisit_counterPraėjusią savaitę4245
mod_vvisit_counterŠį mėnesį13767
mod_vvisit_counterPraėjusį mėnesį17836
mod_vvisit_counterViso925417

Mes turime: 4 svečius online
Jūsų IP: 54.162.165.158
 , 
Šiandien: Birž 25, 2018
Oro uostas

AP V2 LT

 

Čia galite pamatyti trumpą filmuką apie įmonės Šiaulių oro uostas teikiamas paslaugas

Šiandien

Pirmadienis, 25 Birželis 2018

Orų prognozė aviacijai

[source: ADDS]
METAR
EYSA 250720Z 25004KT 200V290 9999 FEW015 SCT018 BKN054 12/09 Q1013 WHT NOSIG =
TAF
TAF EYSA 250500Z 2506/2515 VRB05KT 9000 BKN025 TEMPO 2506/2512 5000 -SHRA SCT005 BKN015CB =
SR / SS: 01:50 / 19:11 UTC (EYSA 2018-06-25)

Paieška

Lankytojai

Mes turime 4 svečius online

tic logo lt